createdAt,value
2023-04-18T00:01:38.486Z,73.56
2023-04-18T00:04:05.606Z,73.59
2023-04-18T00:06:32.625Z,73.72
2023-04-18T00:08:59.748Z,73.67
2023-04-18T00:11:26.687Z,73.40
2023-04-18T00:13:53.726Z,73.58
2023-04-18T00:16:21.024Z,73.56
2023-04-18T00:18:48.350Z,73.58
2023-04-18T00:21:16.928Z,73.48
2023-04-18T00:23:43.668Z,72.87
2023-04-18T00:26:10.334Z,73.49
2023-04-18T00:28:37.386Z,73.51
2023-04-18T00:31:04.129Z,73.58
2023-04-18T00:33:31.843Z,73.64
2023-04-18T00:35:58.499Z,73.67
2023-04-18T00:38:25.177Z,73.27
2023-04-18T00:40:51.884Z,72.84
2023-04-18T00:43:18.562Z,72.82
2023-04-18T00:45:45.395Z,73.33
2023-04-18T00:48:12.335Z,73.32
2023-04-18T00:50:40.763Z,72.92
2023-04-18T00:53:10.651Z,73.52
2023-04-18T00:55:38.536Z,73.38
2023-04-18T00:58:06.369Z,73.16
2023-04-18T01:00:33.448Z,73.54
2023-04-18T01:03:00.293Z,73.23
2023-04-18T01:05:27.277Z,72.66
2023-04-18T01:07:58.838Z,73.04
2023-04-18T01:10:25.692Z,73.32
2023-04-18T01:13:13.114Z,72.70
2023-04-18T01:15:41.721Z,72.87
2023-04-18T01:18:09.846Z,72.27
2023-04-18T01:20:38.561Z,72.72
2023-04-18T01:23:06.017Z,72.93
2023-04-18T01:25:35.174Z,72.97
2023-04-18T01:28:02.830Z,72.96
2023-04-18T01:30:29.516Z,72.92
2023-04-18T01:32:58.489Z,73.23
2023-04-18T01:35:27.092Z,73.02
2023-04-18T01:37:56.608Z,73.25
2023-04-18T01:40:23.900Z,73.02
2023-04-18T01:42:51.165Z,73.15
2023-04-18T01:45:19.487Z,73.52
2023-04-18T01:47:46.800Z,73.82
2023-04-18T01:50:13.648Z,73.96
2023-04-18T01:52:42.648Z,73.81
2023-04-18T01:55:09.763Z,73.95
2023-04-18T01:57:36.916Z,73.91
2023-04-18T02:00:07.986Z,74.00
2023-04-18T02:02:43.946Z,73.75
2023-04-18T02:05:10.912Z,73.71
2023-04-18T02:07:39.282Z,74.07
2023-04-18T02:10:06.678Z,74.16
2023-04-18T02:12:34.431Z,74.04
2023-04-18T02:15:01.237Z,74.09
2023-04-18T02:17:28.816Z,74.44
2023-04-18T02:19:55.549Z,74.51
2023-04-18T02:22:22.226Z,74.85
2023-04-18T02:24:48.934Z,74.97
2023-04-18T02:27:16.259Z,74.87
2023-04-18T02:29:43.049Z,75.22
2023-04-18T02:32:09.788Z,74.88
2023-04-18T02:34:37.232Z,75.00
2023-04-18T02:37:04.655Z,75.00
2023-04-18T02:39:32.308Z,75.16
2023-04-18T02:41:59.286Z,75.15
2023-04-18T02:44:26.028Z,74.59
2023-04-18T02:46:52.816Z,74.69
2023-04-18T02:49:19.689Z,74.79
2023-04-18T02:51:47.145Z,75.07
2023-04-18T02:54:16.543Z,75.13
2023-04-18T02:56:57.682Z,74.73
2023-04-18T02:59:44.737Z,74.88
2023-04-18T03:02:31.762Z,75.08
2023-04-18T03:05:07.482Z,75.40
2023-04-18T03:07:34.447Z,75.30
2023-04-18T03:10:01.144Z,75.43
2023-04-18T03:12:33.036Z,75.11
2023-04-18T03:15:00.448Z,75.22
2023-04-18T03:17:28.278Z,75.09
2023-04-18T03:19:55.144Z,75.16
2023-04-18T03:22:23.233Z,75.00
2023-04-18T03:24:57.394Z,75.05
2023-04-18T03:27:39.174Z,74.95
2023-04-18T03:30:06.658Z,75.05
2023-04-18T03:32:35.349Z,74.83
2023-04-18T03:35:03.078Z,74.52
2023-04-18T03:37:29.974Z,74.68
2023-04-18T03:39:57.457Z,74.75
2023-04-18T03:42:27.339Z,74.62
2023-04-18T03:44:54.007Z,74.54
2023-04-18T03:47:21.428Z,74.94
2023-04-18T03:49:54.630Z,74.64
2023-04-18T03:52:23.083Z,74.67
2023-04-18T03:54:49.758Z,74.65
2023-04-18T03:57:19.452Z,74.76
2023-04-18T03:59:47.737Z,74.79
2023-04-18T04:02:15.047Z,74.91
2023-04-18T04:04:42.372Z,74.32
2023-04-18T04:07:11.072Z,73.96
2023-04-18T04:09:37.749Z,74.31
2023-04-18T04:12:06.133Z,74.36
2023-04-18T04:14:33.700Z,74.35
2023-04-18T04:17:00.604Z,74.58
2023-04-18T04:19:29.422Z,74.66
2023-04-18T04:22:09.795Z,74.57
2023-04-18T04:24:38.695Z,74.58
2023-04-18T04:27:06.706Z,74.64
2023-04-18T04:29:36.329Z,74.68
2023-04-18T04:32:05.946Z,74.62
2023-04-18T04:34:37.065Z,74.85
2023-04-18T04:37:06.126Z,74.80
2023-04-18T04:39:39.323Z,74.82
2023-04-18T04:42:25.518Z,75.01
2023-04-18T04:45:02.679Z,75.06
2023-04-18T04:47:29.480Z,74.54
2023-04-18T04:49:56.282Z,74.27
2023-04-18T04:52:23.018Z,74.33
2023-04-18T04:54:51.657Z,73.65
2023-04-18T04:57:20.100Z,74.01
2023-04-18T04:59:49.846Z,74.27
2023-04-18T05:02:16.912Z,73.93
2023-04-18T05:04:43.826Z,74.28
2023-04-18T05:07:10.777Z,74.36
2023-04-18T05:09:37.461Z,74.23
2023-04-18T05:12:04.678Z,73.72
2023-04-18T05:14:31.410Z,73.87
2023-04-18T05:16:58.232Z,73.72
2023-04-18T05:19:24.969Z,73.91
2023-04-18T05:21:51.642Z,73.58
2023-04-18T05:24:18.509Z,73.22
2023-04-18T05:26:45.338Z,73.46
2023-04-18T05:29:12.083Z,73.58
2023-04-18T05:31:38.807Z,73.69
2023-04-18T05:34:05.573Z,74.15
2023-04-18T05:36:32.553Z,73.91
2023-04-18T05:38:59.245Z,74.15
2023-04-18T05:41:26.050Z,73.68
2023-04-18T05:44:02.426Z,73.39
2023-04-18T05:46:31.954Z,73.11
2023-04-18T05:48:58.712Z,73.55
2023-04-18T05:51:26.598Z,73.41
2023-04-18T05:53:53.299Z,73.57
2023-04-18T05:56:20.061Z,73.43
2023-04-18T05:58:47.756Z,73.55
2023-04-18T06:01:14.546Z,73.60
2023-04-18T06:03:41.801Z,73.61
2023-04-18T06:06:08.817Z,73.81
2023-04-18T06:08:35.529Z,73.77
2023-04-18T06:11:02.442Z,73.67
2023-04-18T06:13:29.130Z,73.58
2023-04-18T06:15:55.899Z,73.05
2023-04-18T06:18:22.592Z,72.96
2023-04-18T06:20:49.553Z,73.12
2023-04-18T06:23:16.883Z,72.76
2023-04-18T06:25:43.800Z,72.88
2023-04-18T06:28:10.500Z,73.18
2023-04-18T06:30:37.357Z,72.88
2023-04-18T06:33:04.190Z,72.56
2023-04-18T06:35:31.400Z,72.96
2023-04-18T06:37:58.230Z,72.99
2023-04-18T06:40:24.940Z,72.84
2023-04-18T06:42:51.762Z,72.84
2023-04-18T06:45:18.539Z,72.97
2023-04-18T06:47:45.698Z,72.92
2023-04-18T06:50:12.434Z,73.05
2023-04-18T06:52:44.394Z,72.83
2023-04-18T06:55:14.536Z,72.55
2023-04-18T06:57:41.981Z,72.31
2023-04-18T07:00:10.287Z,72.49
2023-04-18T07:02:38.305Z,72.20
2023-04-18T07:05:05.920Z,71.90
2023-04-18T07:07:33.522Z,71.23
2023-04-18T07:10:00.811Z,72.04
2023-04-18T07:12:27.760Z,71.85
2023-04-18T07:14:55.131Z,71.58
2023-04-18T07:17:21.896Z,71.08
2023-04-18T07:19:48.651Z,71.29
2023-04-18T07:22:15.848Z,70.77
2023-04-18T07:24:42.639Z,70.88
2023-04-18T07:27:09.785Z,71.38
2023-04-18T07:29:36.732Z,70.79
2023-04-18T07:32:03.544Z,70.65
2023-04-18T07:34:30.666Z,70.87
2023-04-18T07:36:57.838Z,69.81
2023-04-18T07:39:24.598Z,70.24
2023-04-18T07:41:51.800Z,70.19
2023-04-18T07:44:18.768Z,70.65
2023-04-18T07:46:45.545Z,70.35
2023-04-18T07:49:12.477Z,70.56
2023-04-18T07:51:39.451Z,71.09
2023-04-18T07:54:06.184Z,70.58
2023-04-18T07:56:32.857Z,70.88
2023-04-18T07:58:59.641Z,69.78
2023-04-18T08:01:27.448Z,68.89
2023-04-18T08:03:55.254Z,68.59
2023-04-18T08:06:22.080Z,67.96
2023-04-18T08:08:48.870Z,68.10
2023-04-18T08:11:15.553Z,66.80
2023-04-18T08:13:42.717Z,67.52
2023-04-18T08:16:09.695Z,66.68
2023-04-18T08:18:36.462Z,66.66
2023-04-18T08:21:03.269Z,68.38
2023-04-18T08:23:29.948Z,68.00
2023-04-18T08:25:57.383Z,66.54
2023-04-18T08:28:24.116Z,67.19
2023-04-18T08:30:52.170Z,66.58
2023-04-18T08:33:19.047Z,66.05
2023-04-18T08:35:46.121Z,64.54
2023-04-18T08:38:13.445Z,65.46
2023-04-18T08:40:40.109Z,65.11
2023-04-18T08:43:09.486Z,64.85
2023-04-18T08:45:37.022Z,64.63
2023-04-18T08:48:04.091Z,65.76
2023-04-18T08:50:30.910Z,64.80
2023-04-18T08:53:01.547Z,63.91
2023-04-18T08:55:28.309Z,65.39
2023-04-18T08:57:56.153Z,64.20
2023-04-18T09:00:23.874Z,64.29
2023-04-18T09:02:55.234Z,63.94
2023-04-18T09:05:24.990Z,63.50
2023-04-18T09:07:56.271Z,64.37
2023-04-18T09:10:32.881Z,64.68
2023-04-18T09:13:03.432Z,65.70
2023-04-18T09:15:30.894Z,66.37
2023-04-18T09:17:59.652Z,66.79
2023-04-18T09:20:35.328Z,66.45
2023-04-18T09:23:10.770Z,64.99
2023-04-18T09:25:45.293Z,65.96
2023-04-18T09:28:29.889Z,64.68
2023-04-18T09:30:58.697Z,65.70
2023-04-18T09:33:33.579Z,64.98
2023-04-18T09:36:29.197Z,64.04
2023-04-18T09:38:57.234Z,64.44
2023-04-18T09:41:24.428Z,64.39
2023-04-18T09:44:09.720Z,62.73
2023-04-18T09:46:38.343Z,62.36
2023-04-18T09:49:05.122Z,63.30
2023-04-18T09:51:32.014Z,62.36
2023-04-18T09:53:58.929Z,63.36
2023-04-18T09:56:28.391Z,62.65
2023-04-18T09:59:18.126Z,61.86
2023-04-18T10:01:48.677Z,61.75
2023-04-18T10:04:16.934Z,61.85
2023-04-18T10:06:46.045Z,62.76
2023-04-18T10:09:13.924Z,63.04
2023-04-18T10:11:41.156Z,61.91
2023-04-18T10:14:11.228Z,62.14
2023-04-18T10:16:38.933Z,60.92
2023-04-18T10:19:23.840Z,61.69
2023-04-18T10:22:01.147Z,61.65
2023-04-18T10:24:46.063Z,59.99
2023-04-18T10:27:12.879Z,61.39
2023-04-18T10:29:53.316Z,60.77
2023-04-18T10:32:23.163Z,61.89
2023-04-18T10:34:50.635Z,62.84
2023-04-18T10:37:19.075Z,59.12
2023-04-18T10:39:58.910Z,61.70
2023-04-18T10:43:01.111Z,61.71
2023-04-18T10:45:29.847Z,62.25
2023-04-18T10:48:26.083Z,60.98
2023-04-18T10:51:18.658Z,61.94
2023-04-18T10:53:52.460Z,61.81
2023-04-18T10:56:19.302Z,62.17
2023-04-18T10:58:55.367Z,61.42
2023-04-18T11:01:31.178Z,61.27
2023-04-18T11:03:59.998Z,60.30
2023-04-18T11:06:27.930Z,60.17
2023-04-18T11:09:12.347Z,60.04
2023-04-18T11:11:39.069Z,60.94
2023-04-18T11:14:06.008Z,59.12
2023-04-18T11:16:34.211Z,60.35
2023-04-18T11:19:01.191Z,60.51
2023-04-18T11:21:30.708Z,61.23
2023-04-18T11:23:58.453Z,60.11
2023-04-18T11:26:26.591Z,61.70
2023-04-18T11:28:57.385Z,62.83
2023-04-18T11:31:25.020Z,63.23
2023-04-18T11:33:52.319Z,62.62
2023-04-18T11:36:19.041Z,61.94
2023-04-18T11:38:46.268Z,63.44
2023-04-18T11:41:16.555Z,63.49
2023-04-18T11:43:43.982Z,63.59
2023-04-18T11:46:11.696Z,63.97
2023-04-18T11:48:41.793Z,63.47
2023-04-18T11:51:29.706Z,63.44
2023-04-18T11:53:56.438Z,62.94
2023-04-18T11:56:23.121Z,61.17
2023-04-18T11:58:49.957Z,62.85
2023-04-18T12:01:21.100Z,60.85
2023-04-18T12:04:01.943Z,63.81
2023-04-18T12:06:54.652Z,62.34
2023-04-18T12:09:24.581Z,62.82
2023-04-18T12:12:01.756Z,59.81
2023-04-18T12:14:29.026Z,61.76
2023-04-18T12:16:55.883Z,60.94
2023-04-18T12:19:28.380Z,59.88
2023-04-18T12:22:03.333Z,58.70
2023-04-18T12:24:30.108Z,58.24
2023-04-18T12:26:58.196Z,57.50
2023-04-18T12:29:28.752Z,56.75
2023-04-18T12:31:55.773Z,55.83
2023-04-18T12:34:22.543Z,56.77
2023-04-18T12:36:49.468Z,54.52
2023-04-18T12:39:18.920Z,56.58
2023-04-18T12:41:46.359Z,56.26
2023-04-18T12:44:14.428Z,57.43
2023-04-18T12:46:41.235Z,55.79
2023-04-18T12:49:08.450Z,55.26
2023-04-18T12:51:35.173Z,54.46
2023-04-18T12:54:02.019Z,56.21
2023-04-18T12:56:28.793Z,54.01
2023-04-18T12:58:55.558Z,56.59
2023-04-18T13:01:22.342Z,55.76
2023-04-18T13:03:56.724Z,54.71
2023-04-18T13:06:31.031Z,56.04
2023-04-18T13:08:57.716Z,55.72
2023-04-18T13:11:28.653Z,54.02
2023-04-18T13:13:55.880Z,54.33
2023-04-18T13:16:22.795Z,55.76
2023-04-18T13:18:49.533Z,54.70
2023-04-18T13:21:16.760Z,53.87
2023-04-18T13:23:43.477Z,54.89
2023-04-18T13:26:10.263Z,53.35
2023-04-18T13:28:36.993Z,55.31
2023-04-18T13:31:03.814Z,54.82
2023-04-18T13:33:30.479Z,55.58
2023-04-18T13:35:57.570Z,54.71
2023-04-18T13:38:24.393Z,55.55
2023-04-18T13:41:00.994Z,56.02
2023-04-18T13:43:35.613Z,55.27
2023-04-18T13:46:02.384Z,54.38
2023-04-18T13:48:29.086Z,54.16
2023-04-18T13:50:55.871Z,54.75
2023-04-18T13:53:22.610Z,55.34
2023-04-18T13:55:49.659Z,54.70
2023-04-18T13:58:16.738Z,56.87
2023-04-18T14:00:43.640Z,55.92
2023-04-18T14:03:11.042Z,56.41
2023-04-18T14:05:37.896Z,57.06
2023-04-18T14:08:04.993Z,58.17
2023-04-18T14:10:31.730Z,57.64
2023-04-18T14:12:58.423Z,55.47
2023-04-18T14:15:25.954Z,56.31
2023-04-18T14:17:52.773Z,56.42
2023-04-18T14:20:19.523Z,56.41
2023-04-18T14:22:47.028Z,55.90
2023-04-18T14:25:15.025Z,56.71
2023-04-18T14:27:42.021Z,55.42
2023-04-18T14:30:10.188Z,55.17
2023-04-18T14:32:36.918Z,54.04
2023-04-18T14:35:06.081Z,54.13
2023-04-18T14:37:33.512Z,54.90
2023-04-18T14:40:00.321Z,53.52
2023-04-18T14:42:30.238Z,53.58
2023-04-18T14:44:56.934Z,53.02
2023-04-18T14:47:24.332Z,52.86
2023-04-18T14:49:52.824Z,52.82
2023-04-18T14:52:20.296Z,53.50
2023-04-18T14:54:46.996Z,52.32
2023-04-18T14:57:13.771Z,53.32
2023-04-18T14:59:40.495Z,53.60
2023-04-18T15:02:08.045Z,54.71
2023-04-18T15:04:39.332Z,54.25
2023-04-18T15:07:07.784Z,52.29
2023-04-18T15:09:38.244Z,54.14
2023-04-18T15:12:06.235Z,53.34
2023-04-18T15:14:33.897Z,55.38
2023-04-18T15:17:01.135Z,56.05
2023-04-18T15:19:28.151Z,54.29
2023-04-18T15:21:54.868Z,56.17
2023-04-18T15:24:21.598Z,54.90
2023-04-18T15:26:48.338Z,56.52
2023-04-18T15:29:15.085Z,56.73
2023-04-18T15:31:41.831Z,57.43
2023-04-18T15:34:08.519Z,56.57
2023-04-18T15:36:36.192Z,57.78
2023-04-18T15:39:06.110Z,58.80
2023-04-18T15:41:37.041Z,58.19
2023-04-18T15:44:05.556Z,58.07
2023-04-18T15:46:34.891Z,59.06
2023-04-18T15:49:01.865Z,58.72
2023-04-18T15:51:28.703Z,59.24
2023-04-18T15:53:55.381Z,57.89
2023-04-18T15:56:23.477Z,60.00
2023-04-18T15:58:50.860Z,57.77
2023-04-18T16:01:17.651Z,58.91
2023-04-18T16:03:44.643Z,60.47
2023-04-18T16:06:12.065Z,57.71
2023-04-18T16:08:38.755Z,57.96
2023-04-18T16:11:05.880Z,58.90
2023-04-18T16:13:32.694Z,57.80
2023-04-18T16:15:59.491Z,59.75
2023-04-18T16:18:26.166Z,56.97
2023-04-18T16:20:52.841Z,59.13
2023-04-18T16:23:20.707Z,59.56
2023-04-18T16:25:47.519Z,60.32
2023-04-18T16:28:14.259Z,60.02
2023-04-18T16:30:43.995Z,60.11
2023-04-18T16:33:10.908Z,59.95
2023-04-18T16:35:37.739Z,60.22
2023-04-18T16:38:04.460Z,59.77
2023-04-18T16:40:32.126Z,58.19
2023-04-18T16:42:58.960Z,59.87
2023-04-18T16:45:25.766Z,60.32
2023-04-18T16:47:52.585Z,59.63
2023-04-18T16:50:19.713Z,61.28
2023-04-18T16:52:46.490Z,60.89
2023-04-18T16:55:13.184Z,60.43
2023-04-18T16:57:39.866Z,61.55
2023-04-18T17:00:07.321Z,61.74
2023-04-18T17:02:34.321Z,61.02
2023-04-18T17:05:01.524Z,60.69
2023-04-18T17:07:28.415Z,60.90
2023-04-18T17:09:55.167Z,60.93
2023-04-18T17:12:21.876Z,61.19
2023-04-18T17:14:48.567Z,60.64
2023-04-18T17:17:15.874Z,61.35
2023-04-18T17:19:42.602Z,61.31
2023-04-18T17:22:09.318Z,61.22
2023-04-18T17:24:36.180Z,61.16
2023-04-18T17:27:02.924Z,61.01
2023-04-18T17:29:29.626Z,61.94
2023-04-18T17:31:56.539Z,61.93
2023-04-18T17:34:23.267Z,61.60
2023-04-18T17:36:50.305Z,60.52
2023-04-18T17:39:17.748Z,62.32
2023-04-18T17:41:45.037Z,62.55
2023-04-18T17:44:11.807Z,60.72
2023-04-18T17:46:38.621Z,62.12
2023-04-18T17:49:05.442Z,63.09
2023-04-18T17:51:32.365Z,62.24
2023-04-18T17:53:59.062Z,62.98
2023-04-18T17:56:25.834Z,63.38
2023-04-18T17:58:54.659Z,63.22
2023-04-18T18:01:22.844Z,63.25
2023-04-18T18:03:49.999Z,64.29
2023-04-18T18:06:16.941Z,64.12
2023-04-18T18:08:43.907Z,64.35
2023-04-18T18:11:10.929Z,64.70
2023-04-18T18:13:39.136Z,64.62
2023-04-18T18:16:06.930Z,65.46
2023-04-18T18:18:34.420Z,63.99
2023-04-18T18:21:01.091Z,65.17
2023-04-18T18:23:27.838Z,65.11
2023-04-18T18:25:54.571Z,64.71
2023-04-18T18:28:21.621Z,64.62
2023-04-18T18:30:48.424Z,65.04
2023-04-18T18:33:15.329Z,65.27
2023-04-18T18:35:42.246Z,64.81
2023-04-18T18:38:09.124Z,64.62
2023-04-18T18:40:35.805Z,65.12
2023-04-18T18:43:02.504Z,65.59
2023-04-18T18:45:29.377Z,64.95
2023-04-18T18:47:56.110Z,65.20
2023-04-18T18:50:23.428Z,65.46
2023-04-18T18:52:50.125Z,65.42
2023-04-18T18:55:16.933Z,64.91
2023-04-18T18:57:43.701Z,65.30
2023-04-18T19:00:11.296Z,65.28
2023-04-18T19:02:39.154Z,65.56
2023-04-18T19:05:06.924Z,65.17
2023-04-18T19:07:33.776Z,65.51
2023-04-18T19:10:01.850Z,66.26
2023-04-18T19:12:29.401Z,65.93
2023-04-18T19:14:56.232Z,65.91
2023-04-18T19:17:24.955Z,65.94
2023-04-18T19:19:53.051Z,66.04
2023-04-18T19:22:19.786Z,65.34
2023-04-18T19:24:47.134Z,66.08
2023-04-18T19:27:13.854Z,66.09
2023-04-18T19:29:40.798Z,66.23
2023-04-18T19:32:07.668Z,66.52
2023-04-18T19:34:34.402Z,66.27
2023-04-18T19:37:01.545Z,66.95
2023-04-18T19:39:28.552Z,66.73
2023-04-18T19:41:55.383Z,66.76
2023-04-18T19:44:22.185Z,66.81
2023-04-18T19:46:48.896Z,66.67
2023-04-18T19:49:15.932Z,66.88
2023-04-18T19:51:42.848Z,66.86
2023-04-18T19:54:09.669Z,67.08
2023-04-18T19:56:36.450Z,66.60
2023-04-18T19:59:06.118Z,66.68
2023-04-18T20:01:32.896Z,67.37
2023-04-18T20:04:00.802Z,66.98
2023-04-18T20:06:28.011Z,66.97
2023-04-18T20:08:54.793Z,66.95
2023-04-18T20:11:22.367Z,67.29
2023-04-18T20:13:49.508Z,67.01
2023-04-18T20:16:17.059Z,67.17
2023-04-18T20:18:44.493Z,67.78
2023-04-18T20:21:11.357Z,67.67
2023-04-18T20:23:38.227Z,67.75
2023-04-18T20:26:04.923Z,68.06
2023-04-18T20:28:32.012Z,67.84
2023-04-18T20:30:58.736Z,67.08
2023-04-18T20:33:25.565Z,67.28
2023-04-18T20:35:53.850Z,67.34
2023-04-18T20:38:25.813Z,67.24
2023-04-18T20:40:54.393Z,67.21
2023-04-18T20:43:21.585Z,67.12
2023-04-18T20:45:51.156Z,67.96
2023-04-18T20:48:18.442Z,67.62
2023-04-18T20:50:51.209Z,66.83
2023-04-18T20:53:22.572Z,67.40
2023-04-18T20:55:49.486Z,67.66
2023-04-18T20:58:16.337Z,67.34
2023-04-18T21:00:44.673Z,67.74
2023-04-18T21:03:15.041Z,67.52
2023-04-18T21:05:43.208Z,67.52
2023-04-18T21:08:11.058Z,67.52
2023-04-18T21:10:37.764Z,67.05
2023-04-18T21:13:04.455Z,67.21
2023-04-18T21:15:31.153Z,67.14
2023-04-18T21:17:57.972Z,67.30
2023-04-18T21:20:24.831Z,67.62
2023-04-18T21:22:52.150Z,67.44
2023-04-18T21:25:21.376Z,67.39
2023-04-18T21:27:48.224Z,67.81
2023-04-18T21:30:15.091Z,67.57
2023-04-18T21:32:41.807Z,67.94
2023-04-18T21:35:09.030Z,67.80
2023-04-18T21:37:35.787Z,67.57
2023-04-18T21:40:02.505Z,67.87
2023-04-18T21:42:29.201Z,68.21
2023-04-18T21:44:56.038Z,68.28
2023-04-18T21:47:23.034Z,67.81
2023-04-18T21:49:49.787Z,67.74
2023-04-18T21:52:16.549Z,67.79
2023-04-18T21:54:43.346Z,68.08
2023-04-18T21:57:10.069Z,67.33
2023-04-18T21:59:36.774Z,68.15
2023-04-18T22:02:03.586Z,68.14
2023-04-18T22:04:30.434Z,68.20
2023-04-18T22:06:57.607Z,68.23
2023-04-18T22:09:24.296Z,68.19
2023-04-18T22:11:51.989Z,67.87
2023-04-18T22:14:20.141Z,67.81
2023-04-18T22:16:46.833Z,67.80
2023-04-18T22:19:14.242Z,68.24
2023-04-18T22:21:40.961Z,67.93
2023-04-18T22:24:08.575Z,67.91
2023-04-18T22:26:35.278Z,68.26
2023-04-18T22:29:01.976Z,67.76
2023-04-18T22:31:28.960Z,68.19
2023-04-18T22:33:56.103Z,68.12
2023-04-18T22:36:22.851Z,68.72
2023-04-18T22:38:49.598Z,68.83
2023-04-18T22:41:16.294Z,68.36
2023-04-18T22:43:43.108Z,68.50
2023-04-18T22:46:09.805Z,68.93
2023-04-18T22:48:36.591Z,68.53
2023-04-18T22:51:03.671Z,68.58
2023-04-18T22:53:30.454Z,68.83
2023-04-18T22:55:57.236Z,69.14
2023-04-18T22:58:23.902Z,68.44
2023-04-18T23:00:50.971Z,68.97
2023-04-18T23:03:18.231Z,68.88
2023-04-18T23:05:45.092Z,68.88
2023-04-18T23:08:12.176Z,68.73
2023-04-18T23:10:39.237Z,68.42
2023-04-18T23:13:06.026Z,68.77
2023-04-18T23:15:32.826Z,69.24
2023-04-18T23:17:59.673Z,69.01
2023-04-18T23:20:26.460Z,68.93
2023-04-18T23:22:53.825Z,69.08
2023-04-18T23:25:20.596Z,68.63
2023-04-18T23:27:48.136Z,68.84
2023-04-18T23:30:14.952Z,68.60
2023-04-18T23:32:41.718Z,69.14
2023-04-18T23:35:08.892Z,68.61
2023-04-18T23:37:35.628Z,69.06
2023-04-18T23:40:04.019Z,68.78
2023-04-18T23:42:30.724Z,68.82
2023-04-18T23:44:59.090Z,68.92
2023-04-18T23:47:25.950Z,69.00
2023-04-18T23:49:52.629Z,68.42
2023-04-18T23:52:19.353Z,68.67
2023-04-18T23:54:46.045Z,68.67
2023-04-18T23:57:12.704Z,68.80
2023-04-18T23:59:39.354Z,69.09
